Iles-de-la-Madeleine, Canada
Current Conditions -  °F | °C
As of 10:35 AM on Tuesday 27 Jan 2015 (Local Time) from CYGR Reporting Station
Moderate Snow Moderate Snow  
Wind Chill: -4°   Ceiling: 200
Heat Index: 18°   Visibility: 0.25mi
Dew Point: 14°   Wind: 37mph
Humidity: 86%   Direction: 50°NE
Pressure: 30.13"   Gusts: 51mph
Location:  47.42°N, 61.77°W
Report Text: CYGR 271435Z 05032G44KT 1/4SM SN BLSN VV002 M08/M10 A3013 RMK SN8 PRESFR SLP203
Loading
Personal Weather Stations






























Interactive Weather Map New forecast layout! Learn more

10-Day Weather Forecast

Advertisements
Track Severe Weather on mobile